| time (UTC) | temp C | wind direction | speed KPH | gust KPH | rain 1hr cm | rain 24hr cm | rain mn cm | humidity % | barometer mb |
| 20260903071107 | 21 | 124 | 6.4 | 12.9 | 0.00 | 0.00 | 0.00 | 59 | 1022.1 |
| 20260903064106 | 20 | 125 | 4.8 | 9.7 | 0.00 | 0.00 | 0.00 | 66 | 1022.4 |
| 20260903061107 | 18 | 134 | 6.4 | 9.7 | 0.00 | 0.00 | 0.00 | 72 | 1022.7 |
| 20260903054106 | 17 | 150 | 4.8 | 9.7 | 0.00 | 0.00 | 0.00 | 76 | 1022.9 |
| 20260903051107 | 16 | 144 | 3.2 | 8.0 | 0.00 | 0.00 | 0.00 | 77 | 1023.0 |
| 20260903044106 | 16 | 124 | 4.8 | 9.7 | 0.00 | 0.00 | 0.00 | 76 | 1023.0 |
| 20260903041106 | 16 | 134 | 4.8 | 9.7 | 0.00 | 0.00 | 0.00 | 76 | 1023.0 |
| 20260903031107 | 16 | 296 | 3.2 | 6.4 | 0.00 | 0.00 | 0.00 | 77 | 1023.0 |
| 20260903021106 | 17 | 288 | 3.2 | 8.0 | 0.00 | 0.00 | 0.00 | 75 | 1021.9 |
| 20260903014106 | 17 | 127 | 6.4 | 14.5 | 0.00 | 0.00 | 0.00 | 74 | 1021.9 |
| 20260903011107 | 17 | 132 | 8.0 | 14.5 | 0.00 | 0.00 | 0.00 | 75 | 1021.9 |
| 20260903004107 | 17 | 137 | 9.7 | 14.5 | 0.00 | 0.00 | 0.00 | 75 | 1021.9 |
| 20260903001506 | 17 | 123 | 9.7 | 12.9 | 0.00 | 0.00 | 0.00 | 75 | 1021.9 |
| 20260902234107 | 17 | 131 | 8.0 | 12.9 | 0.00 | 0.00 | 0.00 | 74 | 1021.9 |
| 20260902224107 | 17 | 110 | 4.8 | 8.0 | 0.00 | 0.00 | 0.00 | 73 | 1021.8 |
| 20260902221107 | 17 | 104 | 3.2 | 4.8 | 0.00 | 0.00 | 0.00 | 72 | 1021.7 |
| 20260902214107 | 18 | 111 | 1.6 | 6.4 | 0.00 | 0.00 | 0.00 | 69 | 1021.6 |
| 20260902211107 | 19 | 163 | 3.2 | 8.0 | 0.00 | 0.00 | 0.00 | 66 | 1021.5 |
| 20260902204108 | 20 | 124 | 6.4 | 11.3 | 0.00 | 0.00 | 0.00 | 65 | 1020.4 |
| 20260902201107 | 20 | 140 | 8.0 | 12.9 | 0.00 | 0.00 | 0.00 | 63 | 1020.3 |
| 20260902194107 | 20 | 133 | 4.8 | 8.0 | 0.00 | 0.00 | 0.00 | 62 | 1021.3 |
| 20260902191107 | 21 | 131 | 6.4 | 11.3 | 0.00 | 0.00 | 0.00 | 61 | 1020.1 |
| 20260902184107 | 21 | 145 | 4.8 | 12.9 | 0.00 | 0.00 | 0.00 | 60 | 1020.1 |
| 20260902181107 | 22 | 202 | 1.6 | 4.8 | 0.00 | 0.00 | 0.00 | 57 | 1019.9 |
| 20260902174107 | 23 | 219 | 1.6 | 4.8 | 0.00 | 0.00 | 0.00 | 55 | 1018.7 |
| 20260902171107 | 23 | 265 | 4.8 | 8.0 | 0.00 | 0.00 | 0.00 | 52 | 1018.6 |
| 20260902164107 | 24 | 262 | 4.8 | 8.0 | 0.00 | 0.00 | 0.00 | 50 | 1018.4 |
| 20260902161107 | 25 | 316 | 6.4 | 16.1 | 0.00 | 0.00 | 0.00 | 49 | 1018.3 |
| 20260902154107 | 25 | 329 | 11.3 | 19.3 | 0.00 | 0.00 | 0.00 | 47 | 1018.3 |
| 20260902151107 | 25 | 333 | 9.7 | 20.9 | 0.00 | 0.00 | 0.00 | 46 | 1018.3 |
| 20260902144107 | 25 | 339 | 12.9 | 22.5 | 0.00 | 0.00 | 0.00 | 47 | 1019.3 |
| 20260902141107 | 25 | 321 | 12.9 | 20.9 | 0.00 | 0.00 | 0.00 | 47 | 1019.4 |
| 20260902134106 | 25 | 323 | 14.5 | 24.1 | 0.00 | 0.00 | 0.00 | 48 | 1019.4 |
| 20260902131107 | 25 | 322 | 12.9 | 22.5 | 0.00 | 0.00 | 0.00 | 48 | 1019.5 |
| 20260902124106 | 24 | 326 | 12.9 | 22.5 | 0.00 | 0.00 | 0.00 | 48 | 1019.5 |
| 20260902121107 | 25 | 319 | 12.9 | 20.9 | 0.00 | 0.00 | 0.00 | 48 | 1019.4 |
| 20260902114107 | 25 | 316 | 12.9 | 24.1 | 0.00 | 0.00 | 0.00 | 50 | 1019.4 |
| 20260902111107 | 24 | 319 | 9.7 | 22.5 | 0.00 | 0.00 | 0.00 | 51 | 1019.5 |
| 20260902104107 | 24 | 335 | 8.0 | 16.1 | 0.00 | 0.00 | 0.00 | 52 | 1020.6 |
| 20260902101107 | 23 | 319 | 8.0 | 14.5 | 0.00 | 0.00 | 0.00 | 53 | 1020.7 |
| 20260902094107 | 22 | 317 | 6.4 | 11.3 | 0.00 | 0.00 | 0.00 | 55 | 1020.8 |
| 20260902091106 | 23 | 354 | 3.2 | 8.0 | 0.00 | 0.00 | 0.00 | 52 | 1020.8 |
| 20260902084106 | 22 | 98 | 3.2 | 8.0 | 0.00 | 0.00 | 0.00 | 55 | 1020.9 |
| 20260902081106 | 21 | 115 | 4.8 | 11.3 | 0.00 | 0.00 | 0.00 | 59 | 1021.2 |
| 20260902074107 | 20 | 105 | 8.0 | 12.9 | 0.00 | 0.00 | 0.00 | 63 | 1021.3 |